Banner, Kentucky
Current Conditions -  °F | °C
As of 7:15 AM on Saturday 25 Oct 2014 (Local Time) from KPBX Reporting Station
Haze Haze  
Wind Chill: 40°   Ceiling: Unl
Heat Index: 40°   Visibility: 5mi
Dew Point: 39°   Wind: 3mph
Humidity: 99%   Direction: 160°SSE
Pressure: 30.07"   Gusts: NA
Location:  37.61°N, 82.68°W
Report Text: KPBX 251115Z AUTO 16003KT 5SM BR SCT001 04/04 A3007 RMK AO2 T00420040
Loading
Personal Weather Stations






























Interactive Weather Map
Tropical Storm Tracking
New forecast layout! Learn more

10-Day Weather Forecast

Advertisements
Track Severe Weather on mobile